CYHZCYYR

Guest
Details From CYHZ - Halifax Intl
To CYYR - Goose Bay
Flight Number -
Tags Generated
Created
Modified
Stats Distance 522 nm / 967 km
Max Altitude 0 ft / 0 m
Waypoints 3
Social Downloads 1
Likes 0
Share VATSIM

Download

Looking for another format? Having issues loading an existing format? Contact us
Advertisement - Login to hide

Notes

Generated

Route

CYHZ YR001 CYYR

ID Type Via Altitude Latitude Longitude Leg Dist Tot Dist Heading (true) Name
O CYHZ APT - 0 ft / 0 m 44.89362˚ -63.51800˚ - 0 nm - -
YR001 FIX - 0 ft / 0 m 53.32080˚ -60.40692˚ 520 nm 520 nm 12° / 15° -
O CYYR APT - 0 ft / 0 m 53.33389˚ -60.43639˚ 1 nm 521 nm 307° / 307° -

Altitude Profile

Advertisement - Login to hide

Weather


0- 5 10 15 20 25 30 35+ Temperature / ° C

Clouds and Precipitation
Forecast for 2018-05-24 12:00 UTC. Updated 2 hours ago

Ground ~20,000 ft ~40,000 ft Winds

CYHZ

Details ICAO CYHZ (YHZ)
Name HALIFAX INTL
Region Canada
Timezone America/Halifax (UTC-3.0)
Stats Elevation 477 ft / 145 m (AMSL)
Location 44.883158° -63.510554°
Runways 2
Magnetic Variation 17.364° W

METAR

CYHZ 241100Z 34012G17KT 15SM FEW017 SCT150 04/01 A3002 RMK CU2AC2 SLP170

Decode

TAF

TAF TAF CYHZ 240838Z 2409/2506 35010KT P6SM BKN020 TEMPO 2409/2411 SCT020 FM241100 35012G22KT P6SM SCT020 FM241400 35015KT P6SM BKN040 TEMPO 2414/2421 SCT040 FM242100 33008KT P6SM FEW050 BECMG 2422/2424 22008KT RMK NXT FCST BY 241200Z

Decode

Departure Runways

ID Width Length Bearing (true) Bearing (mag) Surface Threshold Offset Overrun Length
05 200 ft / 61 m 8,608 ft / 2,624 m 34.95° 52.31° Asphalt 0 ft / 0 m 0 ft / 0 m
14 200 ft / 61 m 7,571 ft / 2,308 m 125.19° 142.55° Asphalt 0 ft / 0 m 0 ft / 0 m
23 200 ft / 61 m 8,608 ft / 2,624 m 214.97° 232.33° Asphalt 0 ft / 0 m 0 ft / 0 m
32 200 ft / 61 m 7,571 ft / 2,308 m 305.21° 322.57° Asphalt 0 ft / 0 m 0 ft / 0 m

CYYR

Details ICAO CYYR (YYR)
Name Goose Bay
Region Canada
Timezone America/Goose_Bay (UTC-3.0)
Stats Elevation 160 ft / 49 m (AMSL)
Location 53.318820° -60.423890°
Runways 2
Magnetic Variation 20.868° W

METAR

CYYR 241100Z 02008G15KT 15SM FEW040 OVC047 M01/M10 A3007 RMK SC1SC7 VIRGA SLP185

Decode

TAF

TAF CYYR 240530Z 2406/2506 33005KT P6SM BKN050 FM241700 05005KT P6SM BKN025 RMK NXT FCST BY 241200Z

Decode

Destination Runways

ID Width Length Bearing (true) Bearing (mag) Surface Threshold Offset Overrun Length
08 209 ft / 64 m 11,055 ft / 3,369 m 54.70° 75.57° Asphalt 0 ft / 0 m 1,000 ft / 305 m
16 200 ft / 61 m 9,515 ft / 2,900 m 132.96° 153.83° Asphalt 0 ft / 0 m 0 ft / 0 m
26 209 ft / 64 m 11,055 ft / 3,369 m 234.73° 255.60° Asphalt 0 ft / 0 m 1,000 ft / 305 m
34 200 ft / 61 m 9,515 ft / 2,900 m 312.99° 333.86° Asphalt 0 ft / 0 m 500 ft / 152 m

Popular Alternatives